Time;durP1;ratioP1;P1;durP2;ratioP2;P2;SDS_P1;SDS_P2;PMS_P1;PMS_P2;Temp;Humidity;BMP_temperature;BMP_pressure;BME280_temperature;BME280_humidity;BME280_pressure;Samples;Min_cycle;Max_cycle;Signal;HPM_P1;HPM_P2
2022/08/06 00:01:52;;;;;;;2.25;0.73;;;14.10;99.90;;;;;;5049823;28;20025;-60
2022/08/06 00:04:19;;;;;;;2.20;0.70;;;14.10;99.90;;;;;;5046502;28;20044;-60
2022/08/06 00:06:45;;;;;;;2.40;0.80;;;14.00;99.90;;;;;;5048464;28;20153;-61
2022/08/06 00:09:11;;;;;;;1.27;0.60;;;13.90;99.90;;;;;;5047640;28;20472;-59
2022/08/06 00:11:38;;;;;;;10.18;0.82;;;13.80;99.90;;;;;;5048476;28;20070;-59
2022/08/06 00:14:05;;;;;;;1.98;0.60;;;13.80;99.90;;;;;;5048666;28;20118;-58
2022/08/06 00:16:31;;;;;;;2.17;0.73;;;13.80;99.90;;;;;;5054112;28;20468;-58
2022/08/06 00:18:56;;;;;;;3.45;0.82;;;13.80;99.90;;;;;;5045162;28;21542;-59
2022/08/06 00:21:22;;;;;;;2.28;0.80;;;13.80;99.90;;;;;;5046370;28;20779;-60
2022/08/06 00:23:48;;;;;;;1.77;0.70;;;13.80;99.90;;;;;;5053574;28;20136;-60
2022/08/06 00:26:14;;;;;;;1.42;0.60;;;13.70;99.90;;;;;;5056629;28;20570;-60
2022/08/06 00:28:40;;;;;;;5.13;0.70;;;13.70;99.90;;;;;;5053339;28;20033;-59
2022/08/06 00:31:12;;;;;;;1.67;0.70;;;13.60;99.90;;;;;;5069705;28;20097;-60
2022/08/06 00:33:41;;;;;;;3.17;1.00;;;13.60;99.90;;;;;;5035835;28;20041;-61
2022/08/06 00:36:07;;;;;;;3.03;0.70;;;13.60;99.90;;;;;;5049165;28;20045;-58
2022/08/06 00:38:33;;;;;;;1.30;0.70;;;13.50;99.90;;;;;;5055110;28;20119;-58
2022/08/06 00:40:59;;;;;;;0.95;0.70;;;13.40;99.90;;;;;;5050680;28;20117;-60
2022/08/06 00:43:26;;;;;;;6.10;1.38;;;13.40;99.90;;;;;;5050944;28;20066;-60
2022/08/06 00:45:52;;;;;;;2.50;1.23;;;13.30;99.90;;;;;;5057554;28;20040;-61
2022/08/06 00:48:18;;;;;;;0.98;0.70;;;13.30;99.90;;;;;;5047876;28;20504;-60
2022/08/06 00:50:43;;;;;;;1.73;0.85;;;13.30;99.90;;;;;;5053519;28;20036;-59
2022/08/06 00:53:09;;;;;;;1.00;0.70;;;13.20;99.90;;;;;;5051819;28;20045;-60
2022/08/06 00:55:38;;;;;;;2.75;0.80;;;13.20;99.90;;;;;;5032170;28;20923;-60
2022/08/06 00:58:04;;;;;;;2.97;1.15;;;13.20;99.90;;;;;;5052728;28;20036;-59
2022/08/06 01:00:34;;;;;;;3.08;0.98;;;13.20;99.90;;;;;;5051103;28;20169;-60
2022/08/06 01:03:00;;;;;;;2.78;0.68;;;13.10;99.90;;;;;;5045542;28;20074;-59
2022/08/06 01:05:26;;;;;;;2.03;1.02;;;13.10;99.90;;;;;;5041043;28;20036;-61
2022/08/06 01:07:53;;;;;;;2.03;1.25;;;13.00;99.90;;;;;;5055495;28;20037;-58
2022/08/06 01:10:22;;;;;;;1.90;0.80;;;13.00;99.90;;;;;;5053645;28;20045;-61
2022/08/06 01:12:47;;;;;;;4.03;1.00;;;12.90;99.90;;;;;;5043594;28;20045;-60
2022/08/06 01:15:13;;;;;;;0.90;0.80;;;12.90;99.90;;;;;;5046904;28;20399;-59
2022/08/06 01:17:58;;;;;;;2.47;0.90;;;12.90;99.90;;;;;;5052534;28;20063;-60
2022/08/06 01:20:50;;;;;;;1.17;0.55;;;12.80;99.90;;;;;;5045213;28;20102;-58
2022/08/06 01:23:35;;;;;;;1.92;0.88;;;12.80;99.90;;;;;;5035131;28;20079;-61
2022/08/06 01:26:28;;;;;;;2.88;0.95;;;12.70;99.90;;;;;;5051798;28;20566;-61
2022/08/06 01:29:05;;;;;;;2.72;0.93;;;12.80;99.90;;;;;;5046622;28;20395;-59
2022/08/06 01:31:54;;;;;;;1.15;0.80;;;12.70;99.90;;;;;;5045238;28;20043;-59
2022/08/06 01:34:40;;;;;;;2.33;0.85;;;12.60;99.90;;;;;;5044437;28;20496;-59
2022/08/06 01:37:35;;;;;;;2.22;1.00;;;12.60;99.90;;;;;;5049952;28;20180;-59
2022/08/06 01:40:06;;;;;;;0.70;0.70;;;12.50;99.90;;;;;;5044802;28;20040;-59
2022/08/06 01:42:33;;;;;;;2.20;0.80;;;12.50;99.90;;;;;;5054826;28;20119;-59
2022/08/06 01:45:01;;;;;;;1.52;0.90;;;12.50;99.90;;;;;;5049069;28;20037;-60
2022/08/06 01:47:30;;;;;;;2.03;0.70;;;12.50;99.90;;;;;;5049621;28;20337;-60
2022/08/06 01:49:59;;;;;;;1.58;0.85;;;12.50;99.90;;;;;;5051390;28;20041;-59
2022/08/06 01:52:26;;;;;;;1.00;0.68;;;12.40;99.90;;;;;;5047223;28;20043;-59
2022/08/06 01:54:58;;;;;;;1.88;1.00;;;12.50;99.90;;;;;;5052781;28;20052;-60
2022/08/06 01:57:26;;;;;;;2.50;1.05;;;12.50;99.90;;;;;;5046416;28;20033;-59
2022/08/06 01:59:55;;;;;;;2.75;0.90;;;12.50;99.90;;;;;;5051072;28;20568;-60
2022/08/06 02:02:24;;;;;;;2.25;1.17;;;12.50;99.90;;;;;;5047216;28;20071;-58
2022/08/06 02:04:54;;;;;;;2.70;1.40;;;12.50;99.90;;;;;;5044618;28;20083;-59
2022/08/06 02:07:23;;;;;;;4.07;1.50;;;12.50;99.90;;;;;;5042554;28;20132;-58
2022/08/06 02:09:51;;;;;;;7.05;1.88;;;12.40;99.90;;;;;;5050868;28;20423;-58
2022/08/06 02:12:23;;;;;;;2.80;1.85;;;12.40;99.90;;;;;;5051501;28;20037;-59
2022/08/06 02:15:06;;;;;;;4.35;1.60;;;12.40;99.90;;;;;;5049540;28;20036;-59
2022/08/06 02:17:38;;;;;;;5.33;1.67;;;12.30;99.90;;;;;;5031001;28;20575;-61
2022/08/06 02:20:05;;;;;;;4.10;1.80;;;12.30;99.90;;;;;;5055966;28;20299;-61
2022/08/06 02:22:34;;;;;;;3.13;1.52;;;12.30;99.90;;;;;;5050991;28;20067;-59
2022/08/06 02:25:04;;;;;;;8.85;1.60;;;12.20;99.90;;;;;;5045432;28;20491;-61
2022/08/06 02:27:32;;;;;;;1.60;1.27;;;12.20;99.90;;;;;;5059716;22;20016;-54
2022/08/06 02:30:00;;;;;;;2.72;1.60;;;12.30;99.90;;;;;;5048114;28;20045;-55
2022/08/06 02:32:26;;;;;;;2.50;1.63;;;12.20;99.90;;;;;;5051555;28;20052;-52
2022/08/06 02:34:52;;;;;;;3.53;1.52;;;12.20;99.90;;;;;;5033751;28;20040;-54
2022/08/06 02:37:23;;;;;;;2.08;1.52;;;12.20;99.90;;;;;;5049726;28;20121;-54
2022/08/06 02:39:57;;;;;;;1.83;1.40;;;12.20;99.90;;;;;;5053223;28;20071;-53
2022/08/06 02:42:23;;;;;;;;;;;12.10;99.90;;;;;;5048800;28;20037;-54
2022/08/06 02:45:00;;;;;;;3.35;1.98;;;12.10;99.90;;;;;;5049992;28;19931;-54
2022/08/06 02:47:48;;;;;;;2.50;1.52;;;12.10;99.90;;;;;;5049979;28;20499;-52
2022/08/06 02:50:17;;;;;;;3.55;1.60;;;12.10;99.90;;;;;;5047780;28;20526;-51
2022/08/06 02:52:56;;;;;;;1.95;1.35;;;12.00;99.90;;;;;;5024369;28;20211;-55
2022/08/06 02:55:26;;;;;;;2.55;1.45;;;12.00;99.90;;;;;;5042475;28;20399;-55
2022/08/06 02:57:56;;;;;;;2.80;1.38;;;11.90;99.90;;;;;;5047560;28;20688;-55
2022/08/06 03:00:23;;;;;;;2.42;1.65;;;11.90;99.90;;;;;;5044256;28;20040;-55
2022/08/06 03:02:55;;;;;;;2.75;1.17;;;12.00;99.90;;;;;;5045193;28;20105;-50
2022/08/06 03:05:22;;;;;;;2.20;1.27;;;12.00;99.90;;;;;;5052559;28;20048;-54
2022/08/06 03:07:52;;;;;;;1.80;1.02;;;12.00;99.90;;;;;;5047063;28;20041;-54
2022/08/06 03:10:20;;;;;;;2.47;1.50;;;11.90;99.90;;;;;;5049392;28;20067;-55
2022/08/06 03:12:48;;;;;;;3.58;1.40;;;11.90;99.90;;;;;;5052230;28;20072;-53
2022/08/06 03:15:15;;;;;;;2.70;1.63;;;11.90;99.90;;;;;;5048377;28;20044;-55
2022/08/06 03:17:42;;;;;;;2.45;1.20;;;11.90;99.90;;;;;;5038318;28;20067;-53
2022/08/06 03:20:10;;;;;;;0.88;0.85;;;11.90;99.90;;;;;;5049764;28;20070;-55
2022/08/06 03:22:36;;;;;;;1.95;1.38;;;11.90;99.90;;;;;;5032732;28;20408;-53
2022/08/06 03:25:04;;;;;;;2.17;1.30;;;12.00;99.90;;;;;;5025464;28;20029;-54
2022/08/06 03:27:31;;;;;;;2.05;1.27;;;11.90;99.90;;;;;;5051150;28;20380;-55
2022/08/06 03:29:58;;;;;;;1.77;1.30;;;11.90;99.90;;;;;;5045926;28;20521;-54
2022/08/06 03:32:25;;;;;;;2.42;1.20;;;11.90;99.90;;;;;;5048030;28;20040;-53
2022/08/06 03:34:52;;;;;;;2.25;1.17;;;11.90;99.90;;;;;;5041780;28;20572;-55
2022/08/06 03:37:19;;;;;;;2.03;1.15;;;11.90;99.90;;;;;;5046857;28;20092;-52
2022/08/06 03:39:46;;;;;;;2.40;1.30;;;11.90;99.90;;;;;;5052177;28;20044;-54
2022/08/06 03:42:11;;;;;;;2.90;1.30;;;11.90;99.90;;;;;;5052352;28;20040;-53
2022/08/06 03:44:37;;;;;;;3.47;1.42;;;11.90;99.90;;;;;;5029777;28;20037;-52
2022/08/06 03:47:12;;;;;;;1.80;1.40;;;11.90;99.90;;;;;;5057520;28;20167;-54
2022/08/06 03:50:10;;;;;;;4.30;1.90;;;11.90;99.90;;;;;;5056611;28;20389;-52
2022/08/06 03:53:02;;;;;;;4.45;1.67;;;11.90;99.90;;;;;;5044194;28;20686;-54
2022/08/06 03:55:31;;;;;;;3.50;1.65;;;11.80;99.90;;;;;;5042308;28;20045;-52
2022/08/06 03:58:01;;;;;;;2.92;1.83;;;11.80;99.90;;;;;;5047340;28;20037;-52
2022/08/06 04:00:32;;;;;;;4.35;1.70;;;11.90;99.90;;;;;;5052419;28;20033;-54
2022/08/06 04:02:59;;;;;;;2.72;1.70;;;11.90;99.90;;;;;;5054412;28;20072;-52
2022/08/06 04:05:27;;;;;;;3.20;1.92;;;12.00;99.90;;;;;;5041818;28;20040;-53
2022/08/06 04:07:55;;;;;;;2.55;1.95;;;12.00;99.90;;;;;;5052294;28;20048;-52
2022/08/06 04:10:23;;;;;;;3.80;2.10;;;12.00;99.90;;;;;;5051075;28;20057;-53
2022/08/06 04:12:49;;;;;;;5.72;2.00;;;11.90;99.90;;;;;;5052102;28;20262;-52
2022/08/06 04:15:16;;;;;;;5.03;2.40;;;11.90;99.90;;;;;;5026872;28;20032;-51
2022/08/06 04:17:44;;;;;;;3.45;2.60;;;12.00;99.90;;;;;;5056434;28;20482;-54
2022/08/06 04:20:16;;;;;;;4.03;2.20;;;12.00;99.90;;;;;;5036576;28;20500;-53
2022/08/06 04:22:42;;;;;;;3.25;2.20;;;12.00;99.90;;;;;;5049527;28;20051;-52
2022/08/06 04:25:10;;;;;;;2.63;2.05;;;11.90;99.90;;;;;;5044542;28;20131;-51
2022/08/06 04:27:38;;;;;;;3.90;2.00;;;11.90;99.90;;;;;;5055249;28;20103;-53
2022/08/06 04:30:05;;;;;;;2.75;1.70;;;11.90;99.90;;;;;;5051875;28;20232;-52
2022/08/06 04:32:32;;;;;;;3.38;1.80;;;12.00;99.90;;;;;;5039927;28;20069;-52
2022/08/06 04:35:03;;;;;;;4.70;2.30;;;12.10;99.90;;;;;;5053329;28;20040;-52
2022/08/06 04:37:29;;;;;;;6.18;2.75;;;12.20;99.90;;;;;;5059676;28;20082;-53
2022/08/06 04:39:56;;;;;;;3.05;2.25;;;12.30;99.90;;;;;;5039781;28;20044;-54
2022/08/06 04:42:21;;;;;;;2.58;1.70;;;12.40;99.90;;;;;;5049871;28;20731;-53
2022/08/06 04:44:48;;;;;;;4.78;3.03;;;12.40;99.90;;;;;;5054532;28;20110;-52
2022/08/06 04:47:15;;;;;;;4.43;2.42;;;12.50;99.90;;;;;;5057229;28;20452;-52
2022/08/06 04:49:40;;;;;;;2.67;1.85;;;12.50;99.90;;;;;;5053052;28;20397;-54
2022/08/06 04:52:06;;;;;;;2.78;2.15;;;12.50;99.90;;;;;;5025168;28;20059;-55
2022/08/06 04:54:32;;;;;;;3.83;2.10;;;12.50;99.90;;;;;;5051418;28;20035;-55
2022/08/06 04:56:58;;;;;;;3.10;1.98;;;12.40;99.90;;;;;;5048484;28;20528;-54
2022/08/06 04:59:23;;;;;;;3.20;2.08;;;12.60;99.90;;;;;;5031809;28;20136;-54
2022/08/06 05:01:49;;;;;;;2.08;1.77;;;12.60;99.90;;;;;;5050327;28;20391;-53
2022/08/06 05:04:15;;;;;;;4.95;3.45;;;12.70;99.90;;;;;;5047126;28;20615;-55
2022/08/06 05:06:50;;;;;;;7.38;2.78;;;12.70;99.90;;;;;;5045862;28;20037;-55
2022/08/06 05:09:20;;;;;;;3.72;2.08;;;12.80;99.90;;;;;;5050870;28;20048;-55
2022/08/06 05:11:52;;;;;;;4.82;3.00;;;12.90;99.90;;;;;;5053628;28;20474;-53
2022/08/06 05:14:26;;;;;;;2.78;2.30;;;13.00;99.90;;;;;;5054649;28;20183;-52
2022/08/06 05:16:54;;;;;;;3.53;2.90;;;13.00;99.90;;;;;;5051968;28;20311;-52
2022/08/06 05:19:35;;;;;;;3.95;2.45;;;13.10;99.90;;;;;;5046544;28;20112;-53
2022/08/06 05:22:03;;;;;;;3.75;2.40;;;13.30;99.90;;;;;;5046866;28;20048;-52
2022/08/06 05:24:29;;;;;;;5.47;2.63;;;13.30;99.90;;;;;;5047721;28;20040;-52
2022/08/06 05:26:55;;;;;;;3.83;2.08;;;13.40;99.90;;;;;;5050998;28;20041;-54
2022/08/06 05:29:21;;;;;;;3.88;2.53;;;13.50;99.90;;;;;;5040614;28;20388;-55
2022/08/06 05:31:48;;;;;;;5.75;2.38;;;13.50;99.90;;;;;;5013831;28;20055;-51
2022/08/06 05:34:14;;;;;;;3.38;2.55;;;13.50;99.90;;;;;;5047244;28;20064;-52
2022/08/06 05:36:40;;;;;;;3.88;2.20;;;13.60;99.90;;;;;;5047179;28;20091;-52
2022/08/06 05:39:06;;;;;;;4.53;2.53;;;13.60;99.90;;;;;;5034989;28;20090;-52
2022/08/06 05:41:34;;;;;;;3.97;2.03;;;13.70;99.90;;;;;;5032991;28;20160;-53
2022/08/06 05:44:01;;;;;;;6.38;2.05;;;13.70;99.90;;;;;;5047213;28;20151;-53
2022/08/06 05:46:41;;;;;;;5.75;2.13;;;13.70;99.90;;;;;;5048065;28;20037;-51
2022/08/06 05:49:14;;;;;;;9.93;2.33;;;13.80;99.90;;;;;;5045951;28;20249;-53
2022/08/06 05:52:04;;;;;;;5.13;2.35;;;13.80;99.90;;;;;;5045882;28;20059;-51
2022/08/06 05:54:44;;;;;;;5.57;2.15;;;13.90;99.90;;;;;;5051590;28;20044;-52
2022/08/06 05:57:37;;;;;;;4.18;2.40;;;14.00;99.90;;;;;;5035817;28;20049;-52
2022/08/06 06:00:10;;;;;;;4.97;2.92;;;14.00;99.90;;;;;;5018765;28;20456;-54
2022/08/06 06:02:42;;;;;;;3.67;1.73;;;14.00;99.90;;;;;;5048191;28;20561;-49
2022/08/06 06:05:10;;;;;;;4.03;2.55;;;14.10;99.90;;;;;;5051315;28;20620;-49
2022/08/06 06:07:36;;;;;;;3.25;2.50;;;14.20;99.90;;;;;;5053056;28;20075;-55
2022/08/06 06:10:05;;;;;;;4.57;1.60;;;14.30;99.90;;;;;;5041756;28;20391;-51
2022/08/06 06:12:32;;;;;;;3.03;1.50;;;14.30;99.90;;;;;;5032891;28;20036;-50
2022/08/06 06:15:00;;;;;;;4.60;1.70;;;14.40;99.90;;;;;;5060149;28;20044;-55
2022/08/06 06:18:04;;;;;;;7.82;2.22;;;14.50;99.90;;;;;;5048637;28;20486;-52
2022/08/06 06:21:03;;;;;;;4.15;1.20;;;14.70;99.90;;;;;;5051470;28;20805;-51
2022/08/06 06:23:44;;;;;;;2.45;1.77;;;14.80;99.90;;;;;;5044878;28;20468;-52
2022/08/06 06:26:33;;;;;;;4.25;1.98;;;15.00;99.90;;;;;;5045038;28;20055;-52
2022/08/06 06:29:13;;;;;;;6.63;1.60;;;15.10;99.90;;;;;;5043708;28;20711;-51
2022/08/06 06:32:18;;;;;;;4.82;1.40;;;15.30;99.90;;;;;;5048959;28;20372;-54
2022/08/06 06:34:54;;;;;;;4.13;1.38;;;15.50;99.90;;;;;;5050198;28;20091;-56
2022/08/06 06:37:44;;;;;;;5.25;1.73;;;15.60;99.90;;;;;;5047352;28;20870;-50
2022/08/06 06:40:32;;;;;;;3.40;1.35;;;15.60;99.90;;;;;;5050601;28;20509;-54
2022/08/06 06:43:11;;;;;;;5.35;1.80;;;15.60;99.90;;;;;;5043019;28;20187;-52
2022/08/06 06:45:42;;;;;;;2.97;1.45;;;15.60;99.90;;;;;;5049198;28;20195;-52
2022/08/06 06:48:22;;;;;;;3.75;1.30;;;15.70;99.90;;;;;;5047151;28;20482;-53
2022/08/06 06:50:56;;;;;;;2.60;1.50;;;15.70;99.90;;;;;;5043125;28;20340;-57
2022/08/06 06:53:24;;;;;;;3.50;1.60;;;15.60;99.90;;;;;;5030362;28;20495;-53
2022/08/06 06:55:54;;;;;;;4.65;1.40;;;15.70;99.90;;;;;;5040875;28;20045;-56
2022/08/06 06:58:31;;;;;;;5.07;1.48;;;15.70;99.90;;;;;;5048535;28;20048;-53
2022/08/06 07:00:57;;;;;;;4.47;1.65;;;15.70;99.90;;;;;;5053208;28;20383;-53
2022/08/06 07:03:24;;;;;;;3.63;1.33;;;15.80;99.90;;;;;;5046974;28;20310;-51
2022/08/06 07:05:52;;;;;;;4.85;2.05;;;16.00;99.90;;;;;;5047518;28;20044;-51
2022/08/06 07:08:20;;;;;;;7.32;2.30;;;16.10;99.90;;;;;;5047213;28;20064;-54
2022/08/06 07:10:46;;;;;;;5.18;2.28;;;16.20;99.90;;;;;;5050493;28;20048;-52
2022/08/06 07:13:15;;;;;;;5.15;2.25;;;16.30;99.90;;;;;;5042184;28;20075;-55
2022/08/06 07:15:42;;;;;;;6.10;2.13;;;16.40;99.90;;;;;;5045868;28;20055;-54
2022/08/06 07:18:09;;;;;;;3.78;1.75;;;16.50;99.90;;;;;;5051064;28;20032;-54
2022/08/06 07:20:36;;;;;;;6.93;2.13;;;16.60;99.90;;;;;;5043568;28;20479;-53
2022/08/06 07:23:06;;;;;;;6.95;2.60;;;16.70;99.90;;;;;;5034623;28;20040;-53
2022/08/06 07:25:37;;;;;;;5.50;2.10;;;16.80;99.90;;;;;;5036897;28;20095;-52
2022/08/06 07:28:04;;;;;;;4.45;1.58;;;16.90;99.90;;;;;;5046225;28;20175;-52
2022/08/06 07:30:32;;;;;;;7.13;2.05;;;17.00;99.90;;;;;;5018572;28;20368;-50
2022/08/06 07:32:59;;;;;;;3.80;1.60;;;17.10;99.90;;;;;;5041573;28;20045;-55
2022/08/06 07:35:25;;;;;;;5.38;1.98;;;17.20;99.90;;;;;;5039510;28;20083;-55
2022/08/06 07:37:56;;;;;;;3.35;1.83;;;17.30;99.90;;;;;;5051405;28;20129;-53
2022/08/06 07:40:30;;;;;;;4.93;1.70;;;17.40;99.90;;;;;;5043862;28;20055;-52
2022/08/06 07:43:08;;;;;;;2.53;1.35;;;17.40;99.90;;;;;;5044150;28;20462;-51
2022/08/06 07:45:33;;;;;;;5.13;1.80;;;17.30;99.90;;;;;;5026764;28;20052;-55
2022/08/06 07:48:07;;;;;;;3.25;1.40;;;17.20;99.90;;;;;;5043650;28;20097;-57
2022/08/06 07:50:32;;;;;;;3.40;1.70;;;17.20;99.90;;;;;;5042798;28;20095;-54
2022/08/06 07:52:59;;;;;;;2.85;1.58;;;17.10;99.90;;;;;;5042749;28;20119;-55
2022/08/06 07:55:26;;;;;;;4.22;1.50;;;17.10;99.90;;;;;;5041015;28;20123;-56
2022/08/06 07:57:54;;;;;;;4.65;2.05;;;17.20;99.90;;;;;;5041239;28;20048;-59
2022/08/06 08:00:22;;;;;;;3.13;1.70;;;17.40;99.90;;;;;;5041111;28;20486;-59
2022/08/06 08:08:19;;;;;;;3.28;1.13;;;17.90;99.90;;;;;;5039529;28;20049;-50
2022/08/06 08:10:45;;;;;;;4.22;1.35;;;18.10;99.90;;;;;;5044964;28;20044;-52
2022/08/06 08:13:12;;;;;;;3.78;1.73;;;18.10;99.90;;;;;;5045942;28;20403;-51
2022/08/06 08:15:38;;;;;;;3.58;1.60;;;18.10;99.90;;;;;;5043899;28;20037;-52
2022/08/06 08:18:04;;;;;;;4.70;1.60;;;18.20;99.90;;;;;;5026108;28;20043;-54
2022/08/06 08:20:31;;;;;;;4.25;1.67;;;18.20;99.90;;;;;;5034590;28;20044;-57
2022/08/06 08:22:57;;;;;;;4.47;1.60;;;18.30;99.90;;;;;;5040391;28;20079;-53
2022/08/06 08:25:23;;;;;;;4.05;1.60;;;18.50;99.90;;;;;;5034558;28;20083;-52
2022/08/06 08:27:51;;;;;;;3.83;1.50;;;18.40;99.30;;;;;;5024898;28;20037;-54
2022/08/06 08:30:17;;;;;;;2.20;1.35;;;18.50;99.40;;;;;;5029908;22;20053;-53
2022/08/06 08:32:44;;;;;;;4.47;1.70;;;18.70;99.20;;;;;;5012646;28;20054;-57
2022/08/06 08:35:11;;;;;;;4.03;1.50;;;18.80;98.50;;;;;;5030836;28;20092;-58
2022/08/06 08:37:37;;;;;;;3.60;1.38;;;18.80;98.70;;;;;;4995945;28;20053;-57
2022/08/06 08:40:03;;;;;;;5.40;1.75;;;18.90;99.30;;;;;;4993812;28;20060;-57
2022/08/06 08:42:36;;;;;;;6.10;1.70;;;18.80;99.40;;;;;;4987411;28;20150;-57
2022/08/06 08:45:02;;;;;;;5.88;1.42;;;18.60;99.20;;;;;;5013594;28;20400;-56
2022/08/06 08:47:30;;;;;;;5.10;2.28;;;18.30;98.80;;;;;;4986526;28;20128;-56
2022/08/06 08:49:58;;;;;;;5.20;2.10;;;18.10;99.10;;;;;;5014017;28;20443;-57
2022/08/06 08:52:33;;;;;;;4.40;1.95;;;18.10;99.40;;;;;;5010733;28;20049;-54
2022/08/06 08:55:02;;;;;;;5.30;1.70;;;18.10;99.80;;;;;;5007191;28;20124;-57
2022/08/06 08:57:28;;;;;;;3.05;1.50;;;18.10;99.90;;;;;;5022062;28;20041;-55
2022/08/06 08:59:55;;;;;;;32.40;3.40;;;18.10;99.80;;;;;;5012046;28;20595;-55
2022/08/06 09:02:23;;;;;;;15.20;2.13;;;18.30;99.60;;;;;;5006736;28;20136;-57
2022/08/06 09:04:49;;;;;;;21.30;3.90;;;18.50;99.90;;;;;;5014769;28;20034;-54
2022/08/06 09:07:15;;;;;;;43.88;3.97;;;18.70;99.60;;;;;;5017591;28;20036;-57
2022/08/06 09:09:41;;;;;;;6.03;2.05;;;18.60;99.00;;;;;;4981916;28;20041;-57
2022/08/06 09:12:07;;;;;;;3.20;1.50;;;18.50;98.50;;;;;;5013797;28;20037;-54
2022/08/06 09:14:35;;;;;;;3.15;1.73;;;18.60;98.20;;;;;;5031314;28;20050;-55
2022/08/06 09:17:03;;;;;;;3.45;1.88;;;18.90;98.40;;;;;;5008173;28;20562;-54
2022/08/06 09:19:30;;;;;;;4.45;1.80;;;19.30;98.50;;;;;;5029110;28;20037;-54
2022/08/06 09:22:00;;;;;;;7.85;3.53;;;19.50;96.90;;;;;;5016604;28;20033;-55
2022/08/06 09:24:26;;;;;;;4.05;1.73;;;19.70;96.70;;;;;;5008255;28;20050;-56
2022/08/06 09:27:13;;;;;;;67.45;5.93;;;19.70;95.30;;;;;;5013700;28;20350;-56
2022/08/06 09:29:48;;;;;;;7.30;2.00;;;19.80;96.40;;;;;;5013468;28;20097;-57
2022/08/06 09:32:37;;;;;;;7.07;2.65;;;20.10;96.50;;;;;;5023779;28;20052;-56
2022/08/06 09:35:14;;;;;;;6.43;2.58;;;20.40;96.70;;;;;;5005864;28;20045;-56
2022/08/06 09:37:40;;;;;;;6.00;2.20;;;20.40;95.60;;;;;;5007357;28;20126;-56
2022/08/06 09:40:17;;;;;;;6.70;1.95;;;20.20;95.10;;;;;;5014569;28;20045;-56
2022/08/06 09:42:48;;;;;;;2.88;1.80;;;20.00;95.30;;;;;;5017191;28;20239;-53
2022/08/06 09:45:16;;;;;;;3.53;2.28;;;19.80;94.70;;;;;;5003539;28;20411;-53
2022/08/06 09:47:43;;;;;;;2.55;1.80;;;19.50;94.90;;;;;;5012607;28;20037;-56
2022/08/06 09:50:09;;;;;;;6.03;2.13;;;19.40;95.30;;;;;;5017210;28;20045;-55
2022/08/06 09:52:35;;;;;;;4.63;1.70;;;19.30;95.80;;;;;;5012433;28;20037;-56
2022/08/06 09:55:01;;;;;;;4.85;1.90;;;19.10;95.30;;;;;;5003668;28;20060;-55
2022/08/06 09:57:44;;;;;;;4.13;2.08;;;19.20;95.70;;;;;;5010542;28;20045;-53
2022/08/06 10:00:11;;;;;;;10.90;3.07;;;19.40;95.50;;;;;;5011754;28;20408;-56
2022/08/06 10:02:38;;;;;;;5.25;2.15;;;19.70;96.20;;;;;;4995077;28;20399;-56
2022/08/06 10:05:14;;;;;;;3.63;2.10;;;20.10;95.20;;;;;;5027608;28;20048;-55
2022/08/06 10:07:40;;;;;;;4.63;2.28;;;20.10;93.50;;;;;;5015626;28;20052;-56
2022/08/06 10:10:07;;;;;;;3.40;2.08;;;20.30;94.20;;;;;;4999164;28;20037;-55
2022/08/06 10:12:33;;;;;;;4.75;2.63;;;20.40;94.80;;;;;;4995303;28;20473;-55
2022/08/06 10:14:59;;;;;;;6.00;2.80;;;20.20;93.80;;;;;;4990673;28;20091;-55
2022/08/06 10:17:25;;;;;;;4.90;2.15;;;20.30;94.50;;;;;;5005786;28;20045;-56
2022/08/06 10:20:16;;;;;;;3.35;2.13;;;20.60;94.20;;;;;;5009972;28;21834;-56
2022/08/06 10:22:57;;;;;;;4.45;2.42;;;20.80;94.30;;;;;;5018497;28;20053;-56
2022/08/06 10:25:23;;;;;;;3.85;2.60;;;20.80;94.00;;;;;;5008073;28;20049;-58
2022/08/06 10:27:53;;;;;;;5.55;2.58;;;20.60;94.30;;;;;;5005176;28;20155;-57
2022/08/06 10:30:18;;;;;;;12.25;3.97;;;20.30;94.10;;;;;;5008672;28;20188;-57
2022/08/06 10:32:53;;;;;;;4.05;2.40;;;20.20;94.20;;;;;;5017071;28;20128;-57
2022/08/06 10:35:23;;;;;;;5.50;2.83;;;20.20;94.70;;;;;;5008385;28;20115;-57
2022/08/06 10:37:58;;;;;;;2.90;2.20;;;20.20;95.00;;;;;;5018916;28;20397;-57
2022/08/06 10:40:26;;;;;;;4.07;2.78;;;20.10;94.20;;;;;;5011443;28;20061;-57
2022/08/06 10:42:52;;;;;;;5.72;2.42;;;19.90;94.10;;;;;;5013780;28;20060;-57
2022/08/06 10:45:18;;;;;;;9.85;2.97;;;19.90;94.90;;;;;;5016999;28;20041;-57
2022/08/06 10:47:46;;;;;;;4.93;2.65;;;19.90;95.20;;;;;;5027460;28;20484;-57
2022/08/06 10:50:13;;;;;;;4.25;2.30;;;20.00;95.60;;;;;;5020507;28;20099;-57
2022/08/06 10:52:40;;;;;;;4.13;2.38;;;19.80;94.70;;;;;;5030916;28;20060;-56
2022/08/06 10:55:08;;;;;;;4.93;2.45;;;19.70;95.40;;;;;;5014164;28;20136;-57
2022/08/06 10:57:35;;;;;;;10.10;2.67;;;19.90;95.90;;;;;;5016216;28;20052;-57
2022/08/06 11:00:03;;;;;;;4.10;2.03;;;20.20;95.50;;;;;;5022282;28;20053;-57
2022/08/06 11:02:53;;;;;;;4.47;2.20;;;20.60;94.90;;;;;;5015905;28;20041;-57
2022/08/06 11:05:23;;;;;;;3.67;2.28;;;20.90;94.40;;;;;;5019995;28;20037;-56
2022/08/06 11:08:05;;;;;;;3.40;2.38;;;20.90;93.70;;;;;;5030526;28;20065;-57
2022/08/06 11:10:40;;;;;;;5.45;2.20;;;20.70;92.50;;;;;;5019152;28;20034;-57
2022/08/06 11:13:32;;;;;;;4.22;2.25;;;20.40;93.90;;;;;;5015253;28;20445;-57
2022/08/06 11:15:58;;;;;;;5.25;2.53;;;20.60;94.00;;;;;;5017285;28;20163;-56
2022/08/06 11:18:24;;;;;;;3.95;2.08;;;21.10;95.00;;;;;;5027288;28;20545;-57
2022/08/06 11:20:52;;;;;;;3.15;2.00;;;21.30;94.30;;;;;;4995199;28;20497;-58
2022/08/06 11:23:18;;;;;;;3.97;2.00;;;21.00;91.80;;;;;;5016021;28;20128;-58
2022/08/06 11:25:51;;;;;;;3.78;2.47;;;21.20;93.50;;;;;;5013452;28;21813;-58
2022/08/06 11:28:40;;;;;;;3.20;1.80;;;21.50;93.00;;;;;;5018772;28;20399;-58
2022/08/06 11:31:07;;;;;;;3.25;1.60;;;21.90;93.20;;;;;;5018893;28;20048;-58
2022/08/06 11:33:33;;;;;;;4.93;1.90;;;22.20;92.70;;;;;;5017108;28;20069;-58
2022/08/06 11:36:10;;;;;;;3.53;1.98;;;22.30;91.50;;;;;;5014680;28;20522;-58
2022/08/06 11:38:51;;;;;;;2.53;1.70;;;22.30;90.70;;;;;;5017410;28;20500;-58
2022/08/06 11:41:22;;;;;;;2.60;1.90;;;22.40;91.50;;;;;;5008081;28;20073;-58
2022/08/06 11:43:51;;;;;;;3.38;1.92;;;22.30;88.80;;;;;;5013864;28;20227;-59
2022/08/06 11:46:28;;;;;;;3.78;2.10;;;22.30;90.00;;;;;;5018963;28;20033;-59
2022/08/06 11:49:03;;;;;;;3.40;2.35;;;22.00;88.80;;;;;;5015180;28;20107;-58
2022/08/06 11:51:52;;;;;;;4.20;2.10;;;21.90;90.20;;;;;;5012906;28;20428;-57
2022/08/06 11:54:28;;;;;;;3.03;2.45;;;21.60;90.70;;;;;;4993559;28;20046;-58
2022/08/06 11:57:06;;;;;;;4.57;2.50;;;21.50;91.00;;;;;;5016546;28;20077;-59
2022/08/06 11:59:36;;;;;;;5.85;2.65;;;21.70;90.70;;;;;;5012127;28;20042;-58
2022/08/06 12:02:07;;;;;;;4.82;2.20;;;22.00;90.20;;;;;;5012601;28;20041;-59
2022/08/06 12:04:35;;;;;;;5.47;2.72;;;21.90;89.70;;;;;;5010466;28;20038;-59
2022/08/06 12:07:22;;;;;;;2.63;2.05;;;21.60;89.70;;;;;;5019586;28;20056;-58
2022/08/06 12:10:00;;;;;;;3.88;2.22;;;21.70;90.10;;;;;;5011539;28;20140;-59
2022/08/06 12:12:27;;;;;;;3.28;2.17;;;22.00;90.20;;;;;;5018692;28;20416;-58
2022/08/06 12:14:55;;;;;;;2.58;1.98;;;22.40;89.60;;;;;;5019703;28;20091;-59
2022/08/06 12:17:22;;;;;;;5.03;2.42;;;22.50;87.50;;;;;;5016731;28;20099;-59
2022/08/06 12:19:51;;;;;;;2.67;2.25;;;22.30;83.30;;;;;;5007559;28;20124;-59
2022/08/06 12:22:20;;;;;;;2.50;1.92;;;22.40;86.20;;;;;;5011866;28;20069;-59
2022/08/06 12:24:49;;;;;;;3.47;2.30;;;22.30;86.30;;;;;;5021117;28;20049;-59
2022/08/06 12:27:17;;;;;;;3.40;2.30;;;21.90;86.20;;;;;;5013073;28;20054;-59
2022/08/06 12:29:45;;;;;;;3.20;2.50;;;21.70;86.70;;;;;;5019821;28;20076;-58
2022/08/06 12:32:25;;;;;;;3.42;2.13;;;21.80;85.40;;;;;;5019074;28;20508;-58
2022/08/06 12:34:52;;;;;;;2.88;2.20;;;22.20;87.00;;;;;;5019623;28;20033;-59
2022/08/06 12:37:19;;;;;;;4.82;2.45;;;22.50;85.90;;;;;;5031682;28;20034;-59
2022/08/06 12:42:31;;;;;;;4.15;2.42;;;22.30;87.30;;;;;;5021546;28;20045;-57
2022/08/06 12:44:57;;;;;;;3.55;2.20;;;22.30;87.30;;;;;;5015276;28;20495;-57
2022/08/06 12:47:25;;;;;;;5.15;2.35;;;22.50;87.50;;;;;;4999342;28;20491;-57
2022/08/06 12:49:53;;;;;;;2.17;1.90;;;22.80;87.70;;;;;;5018184;28;20037;-58
2022/08/06 12:52:21;;;;;;;2.92;1.80;;;23.10;86.30;;;;;;5015058;28;20038;-58
2022/08/06 12:54:48;;;;;;;3.40;2.35;;;23.40;85.40;;;;;;5009137;28;20163;-57
2022/08/06 12:57:24;;;;;;;3.05;1.95;;;23.70;84.80;;;;;;5022666;28;20044;-58
2022/08/06 12:59:51;;;;;;;3.83;2.28;;;23.60;82.80;;;;;;5016059;28;20504;-58
2022/08/06 13:02:19;;;;;;;3.40;2.08;;;23.10;82.70;;;;;;5011718;28;20118;-59
2022/08/06 13:04:49;;;;;;;4.05;1.88;;;23.10;84.00;;;;;;5031329;28;20488;-59
2022/08/06 13:07:16;;;;;;;4.43;2.05;;;23.20;86.10;;;;;;4999669;28;20048;-57
2022/08/06 13:09:45;;;;;;;3.45;1.90;;;23.10;85.40;;;;;;4991096;28;20279;-58
2022/08/06 13:12:20;;;;;;;2.65;1.58;;;23.10;84.90;;;;;;4998450;28;20136;-59
2022/08/06 13:14:52;;;;;;;3.25;1.75;;;23.30;83.20;;;;;;5016535;28;20484;-58